Time;durP1;ratioP1;P1;durP2;ratioP2;P2;SDS_P1;SDS_P2;PMS_P1;PMS_P2;Temp;Humidity;BMP_temperature;BMP_pressure;BME280_temperature;BME280_humidity;BME280_pressure;Samples;Min_cycle;Max_cycle;Signal;HPM_P1;HPM_P2
2023/08/16 00:02:24;;;;;;;;;14.50;13.50;;;;;26.68;100.00;98983.78;6248989;27;98416;-66
2023/08/16 00:05:28;;;;;;;;;13.00;12.00;;;;;26.69;100.00;98987.38;6265263;27;96302;-66
2023/08/16 00:08:31;;;;;;;;;14.00;14.00;;;;;26.67;100.00;98987.72;6250919;27;97262;-66
2023/08/16 00:11:36;;;;;;;;;14.40;14.00;;;;;26.65;100.00;98981.69;6251515;27;98640;-66
2023/08/16 00:14:39;;;;;;;;;14.60;13.00;;;;;26.65;100.00;98980.88;6249923;27;98524;-66
2023/08/16 00:17:42;;;;;;;;;14.00;13.60;;;;;26.61;100.00;98991.75;6285432;27;96499;-66
2023/08/16 00:20:45;;;;;;;;;13.00;12.00;;;;;26.54;100.00;98987.84;6286746;27;96395;-67
2023/08/16 00:23:48;;;;;;;;;14.00;13.00;;;;;26.53;100.00;98991.75;6251969;27;98526;-66
2023/08/16 00:26:53;;;;;;;;;15.20;13.20;;;;;26.35;100.00;98976.28;6241175;27;98435;-66
2023/08/16 00:29:57;;;;;;;;;16.00;16.00;;;;;26.51;100.00;99003.16;6266775;27;96392;-66
2023/08/16 00:33:00;;;;;;;;;13.00;12.00;;;;;26.47;100.00;98993.88;6287248;27;96682;-66
2023/08/16 00:36:03;;;;;;;;;12.25;12.00;;;;;26.47;100.00;98996.63;6250359;27;96661;-66
2023/08/16 00:39:06;;;;;;;;;14.80;13.80;;;;;26.49;100.00;98994.34;6283328;27;96692;-66
2023/08/16 00:42:11;;;;;;;;;15.00;14.00;;;;;26.48;100.00;99002.97;6267836;27;96908;-66
2023/08/16 00:45:15;;;;;;;;;15.00;13.00;;;;;26.47;100.00;99007.69;6286792;27;96537;-66
2023/08/16 00:48:19;;;;;;;;;14.75;13.75;;;;;26.47;100.00;98996.63;6281206;27;96374;-66
2023/08/16 00:51:23;;;;;;;;;15.00;15.00;;;;;26.46;100.00;98991.41;6251142;27;98564;-66
2023/08/16 00:54:26;;;;;;;;;14.00;13.00;;;;;26.42;100.00;98982.97;6268015;27;96461;-66
2023/08/16 00:57:32;;;;;;;;;16.00;15.00;;;;;26.44;100.00;98986.22;6266597;27;96655;-66
2023/08/16 01:00:35;;;;;;;;;15.50;15.00;;;;;26.44;100.00;98975.16;6267584;27;96393;-67
2023/08/16 01:03:38;;;;;;;;;14.60;14.60;;;;;26.44;100.00;98972.38;6268449;27;97162;-66
2023/08/16 01:06:42;;;;;;;;;14.20;14.20;;;;;26.43;100.00;98968.00;6250492;27;98604;-66
2023/08/16 01:09:45;;;;;;;;;14.40;13.40;;;;;26.38;100.00;98967.34;6289786;27;96942;-66
2023/08/16 01:12:56;;;;;;;;;14.40;14.00;;;;;26.37;100.00;98974.84;6271305;27;96367;-66
2023/08/16 01:16:02;;;;;;;;;15.00;14.60;;;;;26.39;100.00;98980.84;6291297;27;96365;-66
2023/08/16 01:19:11;;;;;;;;;15.00;14.60;;;;;26.43;100.00;98983.78;6269856;27;98530;-66
2023/08/16 01:22:22;;;;;;;;;15.00;14.80;;;;;26.40;100.00;98979.69;6270141;27;96415;-66
2023/08/16 01:25:35;;;;;;;;;13.00;13.00;;;;;26.25;100.00;98989.28;6270306;27;96917;-66
2023/08/16 01:28:40;;;;;;;;;15.00;14.00;;;;;26.07;100.00;98990.34;6254704;27;97873;-66
2023/08/16 01:31:44;;;;;;;;;14.00;13.50;;;;;25.90;100.00;98987.53;6262005;27;96483;-66
2023/08/16 01:34:48;;;;;;;;;13.00;12.40;;;;;25.73;100.00;98988.28;6271181;27;96862;-66
2023/08/16 01:37:51;;;;;;;;;14.00;13.00;;;;;25.69;100.00;98986.47;6264629;27;96580;-66
2023/08/16 01:40:59;;;;;;;;;13.00;12.00;;;;;25.66;100.00;98993.44;6271363;27;96577;-66
2023/08/16 01:44:05;;;;;;;;;12.00;11.00;;;;;25.62;100.00;98983.34;6289299;27;96381;-66
2023/08/16 01:47:09;;;;;;;;;15.00;13.00;;;;;25.63;100.00;98987.72;6290366;27;96370;-66
2023/08/16 01:50:12;;;;;;;;;12.25;11.75;;;;;25.63;100.00;98983.03;6254075;27;98508;-66
2023/08/16 01:53:15;;;;;;;;;12.80;11.00;;;;;25.66;100.00;98982.38;6273106;27;96485;-66
2023/08/16 01:56:18;;;;;;;;;15.60;14.00;;;;;25.67;100.00;98986.78;6259076;27;96791;-66
2023/08/16 01:59:23;;;;;;;;;17.00;15.00;;;;;25.63;100.00;98982.22;6253541;27;98792;-66
2023/08/16 02:02:26;;;;;;;;;12.00;12.00;;;;;25.62;100.00;98986.91;6252965;27;97101;-66
2023/08/16 02:05:29;;;;;;;;;12.50;12.25;;;;;25.59;100.00;98981.22;6289194;27;97594;-66
2023/08/16 02:08:32;;;;;;;;;15.00;14.50;;;;;25.59;100.00;98981.22;6269759;27;97689;-66
2023/08/16 02:11:35;;;;;;;;;18.00;15.00;;;;;25.62;100.00;98983.34;6266432;27;96526;-65
2023/08/16 02:14:40;;;;;;;;;14.60;12.60;;;;;25.67;100.00;98981.25;6285334;27;96282;-66
2023/08/16 02:17:44;;;;;;;;;15.00;15.00;;;;;25.77;100.00;98980.16;6269022;27;97048;-65
2023/08/16 02:20:52;;;;;;;;;13.00;13.00;;;;;25.84;100.00;98975.81;6270396;27;96365;-66
2023/08/16 02:23:56;;;;;;;;;14.75;14.00;;;;;25.92;100.00;98978.91;6287675;27;96502;-66
2023/08/16 02:26:59;;;;;;;;;14.00;13.80;;;;;25.95;100.00;98967.25;6253855;27;97249;-66
2023/08/16 02:30:04;;;;;;;;;16.00;16.00;;;;;26.02;100.00;98971.16;6268143;27;96871;-66
2023/08/16 02:33:07;;;;;;;;;15.00;15.00;;;;;26.05;100.00;98976.03;6273740;27;96458;-66
2023/08/16 02:36:10;;;;;;;;;15.50;15.50;;;;;25.98;100.00;98972.13;6268125;27;96460;-66
2023/08/16 02:39:14;;;;;;;;;16.00;15.00;;;;;26.03;100.00;98974.72;6249759;27;99131;-66
2023/08/16 02:42:17;;;;;;;;;17.00;16.60;;;;;26.12;100.00;98970.03;6269325;27;97034;-66
2023/08/16 02:45:21;;;;;;;;;17.00;15.00;;;;;26.18;100.00;98977.88;6248871;27;98454;-66
2023/08/16 02:48:25;;;;;;;;;16.00;15.40;;;;;26.24;100.00;98981.31;6242012;27;98911;-66
2023/08/16 02:51:29;;;;;;;;;17.00;15.75;;;;;26.28;100.00;98980.34;6268464;27;98337;-66
2023/08/16 02:54:33;;;;;;;;;17.20;15.40;;;;;26.22;100.00;98992.69;6250449;27;98592;-66
2023/08/16 02:57:36;;;;;;;;;19.00;17.00;;;;;26.17;100.00;98981.75;6250778;27;96569;-66
2023/08/16 03:00:41;;;;;;;;;16.00;16.00;;;;;26.20;100.00;98983.03;6204004;27;1220341;-66
2023/08/16 03:03:48;;;;;;;;;16.00;14.00;;;;;26.21;100.00;98976.38;6249722;27;96684;-66
2023/08/16 03:06:52;;;;;;;;;15.40;14.00;;;;;26.20;100.00;98985.81;6251911;27;96867;-66
2023/08/16 03:09:55;;;;;;;;;16.00;15.00;;;;;26.20;100.00;98988.56;6269202;27;99179;-66
2023/08/16 03:13:00;;;;;;;;;17.00;15.00;;;;;26.29;100.00;98984.72;6260250;27;96914;-66
2023/08/16 03:16:04;;;;;;;;;14.60;14.00;;;;;26.33;100.00;98979.38;6256156;27;99355;-66
2023/08/16 03:19:08;;;;;;;;;17.00;14.75;;;;;26.28;100.00;98985.06;6267357;27;98497;-66
2023/08/16 03:22:11;;;;;;;;;12.60;12.00;;;;;26.29;100.00;98989.47;6278634;27;96771;-66
2023/08/16 03:25:15;;;;;;;;;16.00;14.00;;;;;26.29;100.00;98987.47;6269230;27;96808;-66
2023/08/16 03:28:18;;;;;;;;;15.00;14.00;;;;;26.29;100.00;98995.78;6287056;27;96382;-66
2023/08/16 03:31:23;;;;;;;;;16.00;14.00;;;;;26.30;100.00;99004.88;6249603;27;96377;-66
2023/08/16 03:34:27;;;;;;;;;16.40;15.00;;;;;26.28;100.00;99004.41;6251282;27;96712;-66
2023/08/16 03:37:31;;;;;;;;;15.20;14.00;;;;;26.29;100.00;99006.03;6255576;27;96405;-66
2023/08/16 03:40:34;;;;;;;;;16.60;15.00;;;;;26.27;100.00;98997.25;6260372;27;96685;-66
2023/08/16 03:43:39;;;;;;;;;17.60;16.20;;;;;26.25;100.00;99002.28;6269742;27;96282;-66
2023/08/16 03:46:43;;;;;;;;;15.00;13.00;;;;;26.23;100.00;99001.78;6261649;27;96875;-66
2023/08/16 03:49:47;;;;;;;;;15.00;15.00;;;;;26.19;100.00;99014.59;6288846;27;96319;-66
2023/08/16 03:52:52;;;;;;;;;14.20;14.00;;;;;26.16;100.00;99018.00;6237364;27;97009;-66
2023/08/16 03:55:56;;;;;;;;;16.00;15.00;;;;;26.08;100.00;99018.78;6268970;27;96306;-66
2023/08/16 03:59:00;;;;;;;;;17.20;16.00;;;;;26.02;100.00;99014.53;6267710;27;96550;-66
2023/08/16 04:02:04;;;;;;;;;14.80;14.20;;;;;26.02;100.00;99007.06;6285879;27;96560;-65
2023/08/16 04:05:10;;;;;;;;;16.75;16.00;;;;;26.02;100.00;99006.25;6283445;27;96364;-65
2023/08/16 04:08:13;;;;;;;;;16.00;15.75;;;;;25.93;100.00;99008.16;6265488;27;99297;-66
2023/08/16 04:11:17;;;;;;;;;13.60;13.60;;;;;25.96;100.00;99015.81;6250627;27;96891;-66
2023/08/16 04:14:21;;;;;;;;;17.00;14.00;;;;;25.99;100.00;99023.47;6265996;27;98467;-66
2023/08/16 04:17:25;;;;;;;;;13.20;12.80;;;;;25.99;100.00;99024.28;6262462;27;96686;-66
2023/08/16 04:20:29;;;;;;;;;16.50;14.00;;;;;26.00;100.00;99028.66;6267917;27;96876;-66
2023/08/16 04:23:32;;;;;;;;;14.00;14.00;;;;;26.07;100.00;99029.03;6246548;27;98443;-66
2023/08/16 04:26:37;;;;;;;;;17.40;15.00;;;;;26.15;100.00;99031.00;6258738;27;96572;-66
2023/08/16 04:29:41;;;;;;;;;15.20;14.00;;;;;26.19;100.00;99022.91;6269525;27;96420;-66
2023/08/16 04:32:45;;;;;;;;;15.00;14.00;;;;;26.35;100.00;99029.59;6286666;27;96688;-66
2023/08/16 04:35:48;;;;;;;;;13.60;12.20;;;;;26.46;100.00;99035.66;6290572;27;96313;-65
2023/08/16 04:38:52;;;;;;;;;13.00;12.20;;;;;26.55;100.00;99036.47;6292643;27;96513;-65
2023/08/16 04:41:55;;;;;;;;;15.40;13.40;;;;;26.61;100.00;99035.19;6273771;27;96545;-65
2023/08/16 04:44:58;;;;;;;;;14.00;14.00;;;;;26.72;100.00;99047.59;6272839;27;96323;-66
2023/08/16 04:48:03;;;;;;;;;14.40;13.60;;;;;26.82;100.00;99049.22;6272485;27;96579;-65
2023/08/16 04:51:07;;;;;;;;;16.00;14.60;;;;;26.99;100.00;99049.25;6269157;27;98211;-65
2023/08/16 04:54:10;;;;;;;;;14.60;13.60;;;;;27.14;100.00;99055.09;6272153;27;97202;-65
2023/08/16 04:57:14;;;;;;;;;16.75;15.00;;;;;27.25;100.00;99052.00;6293441;27;96454;-66
2023/08/16 05:00:19;;;;;;;;;14.00;13.40;;;;;27.32;100.00;99047.59;6254214;27;96754;-65
2023/08/16 05:03:30;;;;;;;;;14.00;13.00;;;;;27.55;100.00;99048.25;6276062;27;96309;-66
2023/08/16 05:06:34;;;;;;;;;12.50;12.00;;;;;27.71;100.00;99045.75;6277305;27;96561;-66
2023/08/16 05:09:38;;;;;;;;;14.50;14.00;;;;;27.83;100.00;99046.69;6287669;27;96476;-65
2023/08/16 05:12:41;;;;;;;;;15.00;13.00;;;;;27.99;100.00;99049.72;6250479;27;97016;-65
2023/08/16 05:15:46;;;;;;;;;13.33;11.67;;;;;28.08;100.00;99050.50;6288248;27;97530;-65
2023/08/16 05:18:52;;;;;;;;;15.40;15.00;;;;;28.17;100.00;99051.31;6262470;27;98527;-66
2023/08/16 05:21:56;;;;;;;;;13.00;12.40;;;;;28.29;100.00;99056.16;6279850;27;96385;-66
2023/08/16 05:24:59;;;;;;;;;15.00;12.00;;;;;28.43;100.00;99057.53;6275818;27;97470;-65
2023/08/16 05:28:03;;;;;;;;;14.00;13.00;;;;;28.53;100.00;99056.34;6272927;27;98763;-65
2023/08/16 05:31:08;;;;;;;;;12.25;11.25;;;;;28.66;100.00;99060.00;6291865;27;96408;-65
2023/08/16 05:34:12;;;;;;;;;12.40;12.00;;;;;28.73;100.00;99057.53;6273462;27;96383;-65
2023/08/16 05:37:15;;;;;;;;;10.60;9.60;;;;;28.80;100.00;99055.03;6262699;27;97294;-65
2023/08/16 05:40:19;;;;;;;;;14.20;13.20;;;;;28.80;100.00;99043.91;6290404;27;96478;-66
2023/08/16 05:43:22;;;;;;;;;12.00;12.00;;;;;28.91;100.00;99056.25;6272994;27;98042;-65
2023/08/16 05:46:25;;;;;;;;;14.00;13.00;;;;;29.08;100.00;99064.41;6277538;27;96387;-65
2023/08/16 05:49:29;;;;;;;;;12.20;12.00;;;;;29.10;100.00;99059.34;6283991;27;96344;-65
2023/08/16 05:52:33;;;;;;;;;13.00;12.00;;;;;29.11;100.00;99063.75;6289817;27;96329;-65
2023/08/16 05:55:36;;;;;;;;;12.00;11.00;;;;;29.20;100.00;99067.28;6290922;27;96854;-65
2023/08/16 05:58:39;;;;;;;;;14.60;13.00;;;;;29.27;100.00;99064.75;6285739;27;96191;-65
2023/08/16 06:01:42;;;;;;;;;10.00;10.00;;;;;29.35;100.00;99070.59;6250210;27;98445;-66
2023/08/16 06:04:47;;;;;;;;;14.60;12.60;;;;;29.50;100.00;99067.19;6248978;27;98408;-65
2023/08/16 06:07:50;;;;;;;;;12.00;11.75;;;;;29.61;100.00;99065.63;6301140;27;96368;-65
2023/08/16 06:10:53;;;;;;;;;12.00;11.00;;;;;29.79;100.00;99053.13;6242366;27;97507;-65
2023/08/16 06:13:56;;;;;;;;;13.00;13.00;;;;;29.91;100.00;99038.50;6275876;27;98466;-65
2023/08/16 06:16:59;;;;;;;;;13.00;12.60;;;;;30.01;100.00;99049.13;6287933;27;97403;-66
2023/08/16 06:20:05;;;;;;;;;14.00;13.60;;;;;30.22;100.00;99044.28;6267891;27;96771;-65
2023/08/16 06:23:09;;;;;;;;;13.00;12.00;;;;;30.47;100.00;99043.16;6292130;27;96343;-66
2023/08/16 06:26:12;;;;;;;;;13.80;13.00;;;;;30.71;100.00;99044.28;6283200;27;96701;-66
2023/08/16 06:29:15;;;;;;;;;13.00;12.80;;;;;30.91;100.00;99037.72;6282709;27;100365;-66
2023/08/16 06:32:18;;;;;;;;;12.75;11.00;;;;;31.13;100.00;99036.44;6284828;27;96985;-66
2023/08/16 06:35:23;;;;;;;;;14.40;13.40;;;;;31.33;100.00;99027.84;6269699;27;97480;-66
2023/08/16 06:38:26;;;;;;;;;15.00;14.00;;;;;31.51;100.00;99036.72;6282298;27;96987;-65
2023/08/16 06:41:29;;;;;;;;;14.00;13.00;;;;;31.71;100.00;99034.88;6287700;27;96372;-66
2023/08/16 06:44:33;;;;;;;;;14.00;13.00;;;;;31.93;100.00;99039.84;6283632;27;96281;-65
2023/08/16 06:47:37;;;;;;;;;13.00;13.00;;;;;32.09;100.00;99042.63;6268519;27;96570;-65
2023/08/16 06:50:41;;;;;;;;;14.25;14.00;;;;;32.05;100.00;99056.50;6258926;27;98637;-65
2023/08/16 06:53:45;;;;;;;;;13.00;13.00;;;;;32.09;100.00;99051.81;6292683;27;96407;-65
2023/08/16 06:56:49;;;;;;;;;13.50;12.00;;;;;32.19;100.00;99056.06;6265254;27;97189;-66
2023/08/16 06:59:52;;;;;;;;;12.60;12.60;;;;;32.19;100.00;99054.09;6267310;27;96909;-65
2023/08/16 07:02:55;;;;;;;;;13.80;13.00;;;;;32.25;100.00;99051.84;6273851;27;96956;-65
2023/08/16 07:06:00;;;;;;;;;13.50;13.25;;;;;32.37;100.00;99053.69;6274220;27;96429;-66
2023/08/16 07:09:04;;;;;;;;;16.00;14.00;;;;;32.55;100.00;99060.50;6287645;27;96990;-66
2023/08/16 07:12:09;;;;;;;;;14.00;13.00;;;;;32.51;100.00;99057.63;6284139;27;96467;-65
2023/08/16 07:15:12;;;;;;;;;14.00;13.00;;;;;32.50;100.00;99052.44;6271986;27;96430;-66
2023/08/16 07:18:16;;;;;;;;;13.00;12.00;;;;;32.67;100.00;99066.81;6273424;27;96545;-65
2023/08/16 07:21:20;;;;;;;;;14.00;13.60;;;;;32.83;100.00;99065.97;6264987;27;96710;-65
2023/08/16 07:24:24;;;;;;;;;14.00;13.00;;;;;33.04;100.00;99063.63;6278449;27;96454;-65
2023/08/16 07:27:27;;;;;;;;;13.00;12.00;;;;;33.23;100.00;99068.47;6268900;27;96832;-66
2023/08/16 07:30:30;;;;;;;;;11.25;11.00;;;;;33.48;100.00;99070.56;6291579;27;96348;-65
2023/08/16 07:33:35;;;;;;;;;12.80;12.20;;;;;33.73;100.00;99070.28;6282564;27;97279;-65
2023/08/16 07:36:39;;;;;;;;;14.00;12.40;;;;;34.09;100.00;99080.94;6276515;27;96514;-66
2023/08/16 07:39:42;;;;;;;;;15.00;13.50;;;;;34.44;100.00;99077.97;6300225;27;96386;-65
2023/08/16 07:42:45;;;;;;;;;14.00;13.50;;;;;34.65;100.00;99071.91;6291077;27;96493;-65
2023/08/16 07:45:52;;;;;;;;;13.00;12.40;;;;;34.94;100.00;99067.53;6282530;27;96355;-65
2023/08/16 07:48:55;;;;;;;;;15.00;14.00;;;;;35.00;100.00;99055.59;6241751;27;97021;-65
2023/08/16 07:52:00;;;;;;;;;13.40;13.00;;;;;35.12;100.00;99079.78;6259132;27;97153;-65
2023/08/16 07:55:03;;;;;;;;;12.00;11.00;;;;;35.34;100.00;99084.47;6283573;27;96444;-65
2023/08/16 07:58:07;;;;;;;;;12.50;12.00;;;;;35.52;100.00;99090.31;6277421;27;96369;-65
2023/08/16 08:01:10;;;;;;;;;13.00;13.00;;;;;35.67;100.00;99085.72;6296634;27;96464;-65
2023/08/16 08:04:13;;;;;;;;;12.60;12.00;;;;;35.68;100.00;99107.75;6297023;27;96215;-65
2023/08/16 08:07:18;;;;;;;;;15.00;13.00;;;;;35.83;100.00;99098.31;6287881;27;96440;-66
2023/08/16 08:10:21;;;;;;;;;15.00;13.40;;;;;35.91;100.00;99100.00;6265985;27;97613;-65
2023/08/16 08:13:25;;;;;;;;;13.00;13.00;;;;;36.27;100.00;99103.97;6284511;27;96618;-65
2023/08/16 08:16:28;;;;;;;;;13.00;12.60;;;;;36.39;100.00;99100.06;6292387;27;96288;-65
2023/08/16 08:19:32;;;;;;;;;15.50;15.00;;;;;36.42;100.00;99082.44;6289605;27;96394;-65
2023/08/16 08:22:36;;;;;;;;;15.00;14.00;;;;;36.63;100.00;99082.63;6283375;27;96394;-65
2023/08/16 08:25:42;;;;;;;;;13.40;13.00;;;;;36.69;100.00;99083.06;6267373;27;96354;-65
2023/08/16 08:28:46;;;;;;;;;15.60;14.00;;;;;36.84;100.00;99094.03;6264271;27;96727;-65
2023/08/16 08:31:49;;;;;;;;;13.00;13.00;;;;;36.88;100.00;99092.03;6281388;27;96389;-65
2023/08/16 08:34:52;;;;;;;;;16.00;13.80;;;;;37.08;100.00;99094.56;6275269;27;96337;-65
2023/08/16 08:37:56;;;;;;;;;14.00;13.00;;;;;37.27;100.00;99095.06;6264495;27;96941;-66
2023/08/16 08:41:00;;;;;;;;;12.80;11.00;;;;;37.48;100.00;99097.19;6265839;27;96481;-66
2023/08/16 08:44:05;;;;;;;;;13.00;12.50;;;;;37.71;100.00;99099.69;6246159;27;98945;-65
2023/08/16 08:47:09;;;;;;;;;13.20;12.80;;;;;37.84;100.00;99103.72;6287818;27;96481;-66
2023/08/16 08:50:19;;;;;;;;;13.00;13.00;;;;;37.98;100.00;99094.50;6285962;27;96346;-65
2023/08/16 08:53:24;;;;;;;;;13.00;12.00;;;;;37.98;100.00;99091.69;6289558;27;96408;-65
2023/08/16 08:56:29;;;;;;;;;14.00;12.00;;;;;38.00;100.00;99095.75;6265565;27;97048;-65
2023/08/16 08:59:35;;;;;;;;;14.40;13.40;;;;;38.30;100.00;99091.75;6303471;27;96808;-65
2023/08/16 09:02:38;;;;;;;;;11.60;11.60;;;;;38.46;100.00;99078.88;6288049;27;96433;-65
2023/08/16 09:05:43;;;;;;;;;13.00;12.00;;;;;38.88;100.00;99092.16;6286607;27;96633;-66
2023/08/16 09:08:48;;;;;;;;;12.00;11.50;;;;;39.11;100.00;99096.50;6283785;27;97526;-66
2023/08/16 09:11:52;;;;;;;;;13.00;13.00;;;;;39.30;97.64;99084.75;6298299;27;96449;-65
2023/08/16 09:14:55;;;;;;;;;12.00;12.00;;;;;39.53;98.67;99070.19;6288127;27;96320;-65
2023/08/16 09:18:06;;;;;;;;;14.00;13.00;;;;;40.03;98.63;99065.84;6278432;27;96375;-65
2023/08/16 09:21:16;;;;;;;;;13.50;12.50;;;;;40.39;96.56;99072.06;6272480;27;96402;-65
2023/08/16 09:24:24;;;;;;;;;14.00;12.40;;;;;40.56;90.64;99078.78;6279813;27;96892;-65
2023/08/16 09:27:28;;;;;;;;;12.20;11.80;;;;;40.67;94.44;99079.47;6252582;27;96660;-66
2023/08/16 09:30:31;;;;;;;;;12.60;12.60;;;;;40.89;92.43;99085.72;6281584;27;96432;-66
2023/08/16 09:33:36;;;;;;;;;13.40;13.00;;;;;40.50;89.41;99089.72;6282944;27;97344;-65
2023/08/16 09:36:42;;;;;;;;;15.00;14.00;;;;;40.19;92.48;99085.13;6298382;27;96639;-65
2023/08/16 09:39:55;;;;;;;;;15.40;13.40;;;;;40.16;93.63;99086.75;6289106;27;96467;-65
2023/08/16 09:42:59;;;;;;;;;14.20;14.20;;;;;40.21;89.55;99083.50;6253014;27;98514;-66
2023/08/16 09:46:03;;;;;;;;;12.00;11.60;;;;;40.38;90.16;99086.59;6283868;27;98811;-65
2023/08/16 09:49:08;;;;;;;;;12.00;12.00;;;;;40.29;89.99;99081.41;6291442;27;96957;-66
2023/08/16 09:52:14;;;;;;;;;12.00;12.00;;;;;40.55;88.92;99071.50;6281726;27;96271;-65
2023/08/16 09:55:28;;;;;;;;;16.00;14.50;;;;;40.57;93.98;99064.19;6283231;27;96410;-65
2023/08/16 09:58:33;;;;;;;;;15.00;13.40;;;;;40.79;92.48;99075.34;6300045;27;96361;-65
2023/08/16 10:01:37;;;;;;;;;17.00;14.40;;;;;40.93;88.76;99069.53;6281033;27;96276;-65
2023/08/16 10:04:56;;;;;;;;;12.00;11.00;;;;;40.96;90.01;99063.81;6296262;27;96903;-66
2023/08/16 10:08:05;;;;;;;;;14.00;14.00;;;;;40.89;93.48;99066.75;6304720;27;96348;-66
2023/08/16 10:11:10;;;;;;;;;13.00;12.00;;;;;40.68;90.43;99064.94;6278113;27;96323;-66
2023/08/16 10:14:13;;;;;;;;;12.60;12.60;;;;;40.41;90.61;99058.31;6296953;27;96542;-66
2023/08/16 10:17:21;;;;;;;;;12.80;12.80;;;;;40.14;91.98;99054.47;6292861;27;96264;-66
2023/08/16 10:20:27;;;;;;;;;12.00;12.00;;;;;39.85;96.42;99059.53;6270256;27;99062;-66
2023/08/16 10:23:31;;;;;;;;;11.25;11.25;;;;;39.76;96.08;99064.84;6292216;27;96507;-66
2023/08/16 10:26:38;;;;;;;;;13.00;12.50;;;;;39.69;93.28;99065.66;6297284;27;96339;-66
2023/08/16 10:29:46;;;;;;;;;13.60;13.00;;;;;39.51;92.36;99061.31;6296947;27;96104;-66
2023/08/16 10:32:56;;;;;;;;;15.00;14.00;;;;;39.35;99.57;99065.44;6280594;27;96773;-66
2023/08/16 10:36:00;;;;;;;;;12.75;12.00;;;;;39.20;100.00;99074.31;6297682;27;96320;-66
2023/08/16 10:39:04;;;;;;;;;13.00;12.00;;;;;38.91;100.00;99076.44;6290852;27;96901;-66
2023/08/16 10:42:14;;;;;;;;;14.00;13.00;;;;;38.23;100.00;99074.84;6289454;27;96295;-66
2023/08/16 10:45:23;;;;;;;;;13.20;12.20;;;;;37.87;100.00;99071.19;6274964;27;96975;-66
2023/08/16 10:48:32;;;;;;;;;14.00;13.00;;;;;37.47;100.00;99072.25;6278103;27;96857;-66
2023/08/16 10:51:44;;;;;;;;;14.00;12.60;;;;;37.16;100.00;99062.47;6278855;27;96946;-66
2023/08/16 10:54:48;;;;;;;;;14.40;13.40;;;;;37.00;100.00;99064.78;6286500;27;96711;-66
2023/08/16 10:57:53;;;;;;;;;15.50;15.50;;;;;36.90;100.00;99057.91;6304668;27;96505;-66
2023/08/16 11:00:58;;;;;;;;;15.00;15.00;;;;;36.81;100.00;99046.22;6285899;27;96944;-66
2023/08/16 11:04:02;;;;;;;;;13.00;13.00;;;;;36.77;100.00;99051.81;6286945;27;96773;-66
2023/08/16 11:07:08;;;;;;;;;17.00;15.00;;;;;36.64;100.00;99049.72;6259270;27;97120;-66
2023/08/16 11:10:11;;;;;;;;;15.00;15.00;;;;;36.78;100.00;99061.06;6280921;27;96700;-66
2023/08/16 11:13:15;;;;;;;;;14.25;13.25;;;;;37.08;100.00;99055.22;6286181;27;98513;-66
2023/08/16 11:16:18;;;;;;;;;14.50;13.00;;;;;37.28;100.00;99059.34;6286921;27;96293;-66
2023/08/16 11:19:22;;;;;;;;;14.00;12.60;;;;;37.36;100.00;99060.16;6273715;27;97386;-66
2023/08/16 11:22:26;;;;;;;;;15.60;15.20;;;;;37.32;100.00;99057.34;6297178;27;96317;-66
2023/08/16 11:25:33;;;;;;;;;15.00;14.00;;;;;37.16;100.00;99059.66;6293919;27;96295;-66
2023/08/16 11:28:38;;;;;;;;;15.60;14.80;;;;;37.71;100.00;99054.66;6304505;27;96384;-66
2023/08/16 11:31:42;;;;;;;;;13.75;13.75;;;;;38.12;100.00;99058.75;6270584;27;96694;-66
2023/08/16 11:34:45;;;;;;;;;17.00;16.00;;;;;38.45;100.00;99054.75;6276991;27;96450;-66
2023/08/16 11:37:48;;;;;;;;;14.60;14.00;;;;;38.60;100.00;99068.84;6295863;27;96315;-66
2023/08/16 11:40:52;;;;;;;;;12.40;11.40;;;;;38.54;100.00;99062.78;6259567;27;96735;-66
2023/08/16 11:44:00;;;;;;;;;15.25;15.00;;;;;38.35;100.00;99049.91;6283987;27;96453;-66
2023/08/16 11:47:03;;;;;;;;;15.00;14.00;;;;;38.19;100.00;99052.31;6270739;27;96960;-66
2023/08/16 11:50:08;;;;;;;;;16.00;14.00;;;;;38.13;100.00;99048.28;6267405;27;96384;-66
2023/08/16 11:53:16;;;;;;;;;14.00;13.00;;;;;38.16;100.00;99050.31;6293160;27;96344;-66
2023/08/16 11:56:20;;;;;;;;;16.50;15.00;;;;;38.40;100.00;99046.69;6295951;27;96472;-66
2023/08/16 11:59:28;;;;;;;;;15.60;15.00;;;;;38.59;100.00;99039.84;6291921;27;96379;-66
2023/08/16 12:02:32;;;;;;;;;14.00;14.00;;;;;38.58;100.00;99041.88;6287595;27;96539;-66
2023/08/16 12:05:37;;;;;;;;;14.00;14.00;;;;;38.75;100.00;99040.22;6287261;27;96498;-66
2023/08/16 12:08:48;;;;;;;;;14.60;14.00;;;;;38.94;100.00;99036.16;6257434;27;96883;-66
2023/08/16 12:11:52;;;;;;;;;14.00;13.60;;;;;39.10;100.00;99041.34;6295506;27;96791;-66
2023/08/16 12:14:56;;;;;;;;;14.80;13.80;;;;;39.31;99.31;99033.59;6284516;27;96439;-66
2023/08/16 12:18:00;;;;;;;;;14.00;13.60;;;;;39.29;96.73;99041.63;6303666;27;96357;-66
2023/08/16 12:21:05;;;;;;;;;15.60;14.40;;;;;39.54;96.13;99038.72;6274904;27;96268;-66
2023/08/16 12:24:08;;;;;;;;;15.00;15.00;;;;;39.47;95.04;99037.97;6276844;27;96464;-66
2023/08/16 12:27:12;;;;;;;;;14.60;13.60;;;;;39.38;94.65;99044.06;6285579;27;96784;-66
2023/08/16 12:30:16;;;;;;;;;15.75;14.00;;;;;39.33;94.86;99033.22;6286926;27;96512;-66
2023/08/16 12:33:19;;;;;;;;;14.00;13.75;;;;;39.26;96.77;99041.66;6291670;27;96363;-66
2023/08/16 12:36:23;;;;;;;;;14.00;13.80;;;;;38.63;99.99;99039.84;6295952;27;96492;-66
2023/08/16 12:39:26;;;;;;;;;13.50;13.00;;;;;38.18;99.52;99047.91;6284190;27;96394;-66
2023/08/16 12:42:34;;;;;;;;;17.25;15.00;;;;;37.82;100.00;99049.06;6286636;27;96385;-66
2023/08/16 12:45:39;;;;;;;;;15.50;14.50;;;;;37.44;100.00;99048.53;6269228;27;96524;-66
2023/08/16 12:48:42;;;;;;;;;14.40;14.00;;;;;37.50;100.00;99046.13;6285732;27;96525;-66
2023/08/16 12:51:46;;;;;;;;;14.40;13.00;;;;;37.66;100.00;99055.84;6284927;27;96653;-66
2023/08/16 12:54:50;;;;;;;;;15.00;13.00;;;;;37.97;98.49;99053.50;6284943;27;96384;-66
2023/08/16 12:57:53;;;;;;;;;15.00;14.00;;;;;38.10;95.38;99055.56;6266860;27;96961;-66
2023/08/16 13:01:06;;;;;;;;;13.20;13.20;;;;;38.33;100.00;99059.97;6283081;27;96601;-66
2023/08/16 13:04:10;;;;;;;;;13.00;12.67;;;;;38.49;96.95;99055.56;6287330;27;97124;-66
2023/08/16 13:07:16;;;;;;;;;12.60;12.00;;;;;38.77;99.27;99051.88;6304218;27;97588;-66
2023/08/16 13:10:32;;;;;;;;;13.00;12.00;;;;;38.33;98.07;99046.69;6281699;27;96846;-66
2023/08/16 13:13:55;;;;;;;;;13.00;12.00;;;;;38.34;100.00;99044.69;6277568;27;96364;-66
2023/08/16 13:17:00;;;;;;;;;13.00;12.80;;;;;38.11;100.00;99037.47;6285277;27;96319;-66
2023/08/16 13:20:09;;;;;;;;;13.00;13.00;;;;;38.09;100.00;99033.41;6305416;27;96293;-66
2023/08/16 13:23:26;;;;;;;;;13.00;13.00;;;;;37.85;100.00;99037.00;6274120;27;96960;-66
2023/08/16 13:26:32;;;;;;;;;15.00;15.00;;;;;37.74;100.00;99031.34;6297853;27;96490;-66
2023/08/16 13:29:41;;;;;;;;;14.00;13.00;;;;;37.46;100.00;99029.25;6287776;27;96396;-66
2023/08/16 13:32:55;;;;;;;;;14.50;14.00;;;;;37.38;100.00;99030.44;6289080;27;96252;-66
2023/08/16 13:36:08;;;;;;;;;17.40;16.40;;;;;37.39;100.00;99028.44;6288721;27;96425;-66
2023/08/16 13:39:13;;;;;;;;;14.60;14.00;;;;;37.10;100.00;99035.94;6294927;27;96491;-66
2023/08/16 13:42:29;;;;;;;;;13.00;12.00;;;;;36.89;100.00;99019.78;6288238;27;96319;-66
2023/08/16 13:45:35;;;;;;;;;13.00;12.00;;;;;36.78;100.00;99025.34;6284909;27;96319;-66
2023/08/16 13:48:40;;;;;;;;;13.25;13.00;;;;;36.51;100.00;99031.56;6304175;27;99025;-66
2023/08/16 13:51:43;;;;;;;;;11.00;11.00;;;;;36.21;100.00;99023.31;6305120;27;96619;-66
2023/08/16 13:54:46;;;;;;;;;13.00;12.40;;;;;35.95;100.00;99029.88;6287447;27;96362;-66
2023/08/16 13:57:50;;;;;;;;;12.40;12.00;;;;;35.72;100.00;99018.03;6267137;27;99757;-66
2023/08/16 14:00:53;;;;;;;;;12.25;11.75;;;;;35.68;100.00;99020.78;6291898;27;96521;-66